Kellys Korner, Washington
Current Conditions -  °F | °C
As of 4:54 AM on Tuesday 21 Oct 2014 (Local Time) from KOLM Reporting Station
Overcast Overcast  
Wind Chill: 54°   Ceiling: 3100
Heat Index: 54°   Visibility: 10mi
Dew Point: 51°   Wind: 10mph
Humidity: 90%   Direction: 190°S
Pressure: 29.84"   Gusts: NA
Location:  46.9679°N, 122.834°W
Report Text: KOLM 211154Z AUTO 19009KT 10SM FEW009 BKN031 OVC065 12/11 A2984 RMK AO2 RAE28 SLP105 P0000 60005 70013 T01220106 10122 20111 53005
Loading
Personal Weather Stations






























Interactive Weather Map
Tropical Storm Tracking
New forecast layout! Learn more

10-Day Weather Forecast

Advertisements
Track Severe Weather on mobile